sensor_id;sensor_type;location;lat;lon;timestamp;P1;durP1;ratioP1;P2;durP2;ratioP2
70367;SDS011;57789;53.868;10.728;2022-12-05T00:01:17;23.70;;;13.07;;
70367;SDS011;57789;53.868;10.728;2022-12-05T00:03:43;24.20;;;11.73;;
70367;SDS011;57789;53.868;10.728;2022-12-05T00:06:10;25.57;;;13.97;;
70367;SDS011;57789;53.868;10.728;2022-12-05T00:08:36;21.50;;;12.67;;
70367;SDS011;57789;53.868;10.728;2022-12-05T00:11:01;19.80;;;11.90;;
70367;SDS011;57789;53.868;10.728;2022-12-05T00:13:27;26.07;;;13.93;;
70367;SDS011;57789;53.868;10.728;2022-12-05T00:15:53;21.73;;;12.30;;
70367;SDS011;57789;53.868;10.728;2022-12-05T00:18:18;21.53;;;13.63;;
70367;SDS011;57789;53.868;10.728;2022-12-05T00:20:44;21.60;;;12.80;;
70367;SDS011;57789;53.868;10.728;2022-12-05T00:23:11;25.27;;;13.40;;
70367;SDS011;57789;53.868;10.728;2022-12-05T00:25:36;23.70;;;13.90;;
70367;SDS011;57789;53.868;10.728;2022-12-05T00:28:02;24.93;;;13.67;;
70367;SDS011;57789;53.868;10.728;2022-12-05T00:30:28;25.10;;;14.77;;
70367;SDS011;57789;53.868;10.728;2022-12-05T00:32:54;26.90;;;14.33;;
70367;SDS011;57789;53.868;10.728;2022-12-05T00:35:19;26.07;;;15.23;;
70367;SDS011;57789;53.868;10.728;2022-12-05T00:37:45;24.23;;;13.23;;
70367;SDS011;57789;53.868;10.728;2022-12-05T00:40:11;28.50;;;14.33;;
70367;SDS011;57789;53.868;10.728;2022-12-05T00:42:37;30.23;;;15.20;;
70367;SDS011;57789;53.868;10.728;2022-12-05T00:45:02;25.80;;;15.17;;
70367;SDS011;57789;53.868;10.728;2022-12-05T00:47:28;26.60;;;14.20;;
70367;SDS011;57789;53.868;10.728;2022-12-05T00:49:54;32.00;;;16.30;;
70367;SDS011;57789;53.868;10.728;2022-12-05T00:52:20;26.57;;;15.33;;
70367;SDS011;57789;53.868;10.728;2022-12-05T00:54:45;27.70;;;15.10;;
70367;SDS011;57789;53.868;10.728;2022-12-05T00:57:11;27.50;;;15.60;;
70367;SDS011;57789;53.868;10.728;2022-12-05T00:59:36;29.90;;;15.00;;
70367;SDS011;57789;53.868;10.728;2022-12-05T01:02:04;28.43;;;14.40;;
70367;SDS011;57789;53.868;10.728;2022-12-05T01:04:29;25.57;;;14.17;;
70367;SDS011;57789;53.868;10.728;2022-12-05T01:06:55;30.07;;;15.20;;
70367;SDS011;57789;53.868;10.728;2022-12-05T01:09:22;27.20;;;14.43;;
70367;SDS011;57789;53.868;10.728;2022-12-05T01:11:49;32.27;;;16.40;;
70367;SDS011;57789;53.868;10.728;2022-12-05T01:14:15;34.40;;;18.30;;
70367;SDS011;57789;53.868;10.728;2022-12-05T01:16:44;65.50;;;32.83;;
70367;SDS011;57789;53.868;10.728;2022-12-05T01:19:12;35.77;;;18.30;;
70367;SDS011;57789;53.868;10.728;2022-12-05T01:21:39;34.10;;;17.10;;
70367;SDS011;57789;53.868;10.728;2022-12-05T01:24:05;41.77;;;22.07;;
70367;SDS011;57789;53.868;10.728;2022-12-05T01:26:31;36.80;;;18.60;;
70367;SDS011;57789;53.868;10.728;2022-12-05T01:28:57;38.63;;;18.77;;
70367;SDS011;57789;53.868;10.728;2022-12-05T01:31:27;35.33;;;19.40;;
70367;SDS011;57789;53.868;10.728;2022-12-05T01:33:58;39.00;;;19.83;;
70367;SDS011;57789;53.868;10.728;2022-12-05T01:36:25;39.00;;;21.40;;
70367;SDS011;57789;53.868;10.728;2022-12-05T01:38:52;35.93;;;20.70;;
70367;SDS011;57789;53.868;10.728;2022-12-05T01:41:19;38.37;;;19.73;;
70367;SDS011;57789;53.868;10.728;2022-12-05T01:46:29;39.83;;;21.47;;
70367;SDS011;57789;53.868;10.728;2022-12-05T01:49:10;43.47;;;20.87;;
70367;SDS011;57789;53.868;10.728;2022-12-05T01:51:38;45.07;;;21.37;;
70367;SDS011;57789;53.868;10.728;2022-12-05T01:54:06;39.37;;;19.93;;
70367;SDS011;57789;53.868;10.728;2022-12-05T01:56:34;37.70;;;19.50;;
70367;SDS011;57789;53.868;10.728;2022-12-05T01:59:01;42.27;;;21.90;;
70367;SDS011;57789;53.868;10.728;2022-12-05T02:01:28;41.87;;;19.50;;
70367;SDS011;57789;53.868;10.728;2022-12-05T02:03:55;46.47;;;21.73;;
70367;SDS011;57789;53.868;10.728;2022-12-05T02:06:22;44.93;;;22.00;;
70367;SDS011;57789;53.868;10.728;2022-12-05T02:08:48;41.23;;;18.73;;
70367;SDS011;57789;53.868;10.728;2022-12-05T02:11:16;41.20;;;21.60;;
70367;SDS011;57789;53.868;10.728;2022-12-05T02:38:18;43.40;;;21.40;;
70367;SDS011;57789;53.868;10.728;2022-12-05T02:40:51;50.57;;;24.03;;
70367;SDS011;57789;53.868;10.728;2022-12-05T02:43:41;53.77;;;21.70;;
70367;SDS011;57789;53.868;10.728;2022-12-05T02:46:16;53.20;;;25.63;;
70367;SDS011;57789;53.868;10.728;2022-12-05T02:48:45;54.23;;;24.40;;
70367;SDS011;57789;53.868;10.728;2022-12-05T02:51:16;55.57;;;23.03;;
70367;SDS011;57789;53.868;10.728;2022-12-05T02:53:45;52.53;;;22.37;;
70367;SDS011;57789;53.868;10.728;2022-12-05T02:56:12;46.77;;;21.17;;
70367;SDS011;57789;53.868;10.728;2022-12-05T02:58:49;45.97;;;22.20;;
70367;SDS011;57789;53.868;10.728;2022-12-05T03:01:21;46.53;;;21.30;;
70367;SDS011;57789;53.868;10.728;2022-12-05T03:03:51;52.50;;;22.67;;
70367;SDS011;57789;53.868;10.728;2022-12-05T03:06:23;43.60;;;22.03;;
70367;SDS011;57789;53.868;10.728;2022-12-05T03:09:05;46.83;;;20.67;;
70367;SDS011;57789;53.868;10.728;2022-12-05T03:11:45;47.90;;;21.80;;
70367;SDS011;57789;53.868;10.728;2022-12-05T03:14:16;46.13;;;22.87;;
70367;SDS011;57789;53.868;10.728;2022-12-05T03:16:48;52.20;;;22.77;;
70367;SDS011;57789;53.868;10.728;2022-12-05T03:19:18;39.50;;;21.40;;
70367;SDS011;57789;53.868;10.728;2022-12-05T03:21:50;53.10;;;21.60;;
70367;SDS011;57789;53.868;10.728;2022-12-05T03:24:22;42.80;;;21.97;;
70367;SDS011;57789;53.868;10.728;2022-12-05T03:30:05;50.63;;;21.27;;
70367;SDS011;57789;53.868;10.728;2022-12-05T03:32:40;50.30;;;22.17;;
70367;SDS011;57789;53.868;10.728;2022-12-05T03:37:57;44.43;;;21.10;;
70367;SDS011;57789;53.868;10.728;2022-12-05T03:40:37;53.70;;;22.30;;
70367;SDS011;57789;53.868;10.728;2022-12-05T03:45:47;49.80;;;20.80;;
70367;SDS011;57789;53.868;10.728;2022-12-05T03:48:30;53.30;;;22.30;;
70367;SDS011;57789;53.868;10.728;2022-12-05T03:51:13;43.90;;;20.47;;
70367;SDS011;57789;53.868;10.728;2022-12-05T03:54:24;46.40;;;21.43;;
70367;SDS011;57789;53.868;10.728;2022-12-05T03:56:34;64.20;;;23.50;;
70367;SDS011;57789;53.868;10.728;2022-12-05T04:01:35;55.77;;;23.57;;
70367;SDS011;57789;53.868;10.728;2022-12-05T04:04:07;56.67;;;22.00;;
70367;SDS011;57789;53.868;10.728;2022-12-05T04:06:38;63.90;;;22.60;;
70367;SDS011;57789;53.868;10.728;2022-12-05T04:09:17;57.37;;;21.57;;
70367;SDS011;57789;53.868;10.728;2022-12-05T04:11:53;55.80;;;22.53;;
70367;SDS011;57789;53.868;10.728;2022-12-05T04:14:45;61.23;;;22.17;;
70367;SDS011;57789;53.868;10.728;2022-12-05T04:22:41;55.83;;;21.27;;
70367;SDS011;57789;53.868;10.728;2022-12-05T04:25:09;54.40;;;21.43;;
70367;SDS011;57789;53.868;10.728;2022-12-05T04:27:58;50.77;;;20.27;;
70367;SDS011;57789;53.868;10.728;2022-12-05T04:33:16;53.33;;;20.37;;
70367;SDS011;57789;53.868;10.728;2022-12-05T04:35:59;62.80;;;24.60;;
70367;SDS011;57789;53.868;10.728;2022-12-05T04:41:25;60.80;;;23.10;;
70367;SDS011;57789;53.868;10.728;2022-12-05T04:43:58;61.50;;;22.30;;
70367;SDS011;57789;53.868;10.728;2022-12-05T04:46:29;58.73;;;23.50;;
70367;SDS011;57789;53.868;10.728;2022-12-05T04:48:56;56.30;;;22.37;;
70367;SDS011;57789;53.868;10.728;2022-12-05T04:51:25;58.80;;;21.63;;
70367;SDS011;57789;53.868;10.728;2022-12-05T04:53:55;57.87;;;24.27;;
70367;SDS011;57789;53.868;10.728;2022-12-05T04:56:25;53.73;;;21.63;;
70367;SDS011;57789;53.868;10.728;2022-12-05T04:58:54;52.17;;;24.00;;
70367;SDS011;57789;53.868;10.728;2022-12-05T05:02:06;54.40;;;21.20;;
70367;SDS011;57789;53.868;10.728;2022-12-05T05:04:11;66.60;;;22.67;;
70367;SDS011;57789;53.868;10.728;2022-12-05T05:06:46;55.03;;;22.87;;
70367;SDS011;57789;53.868;10.728;2022-12-05T05:09:12;61.07;;;22.37;;
70367;SDS011;57789;53.868;10.728;2022-12-05T05:11:37;65.07;;;24.90;;
70367;SDS011;57789;53.868;10.728;2022-12-05T05:14:03;62.07;;;24.23;;
70367;SDS011;57789;53.868;10.728;2022-12-05T05:16:33;60.00;;;23.70;;
70367;SDS011;57789;53.868;10.728;2022-12-05T05:19:03;65.93;;;23.27;;
70367;SDS011;57789;53.868;10.728;2022-12-05T05:21:34;81.10;;;26.37;;
70367;SDS011;57789;53.868;10.728;2022-12-05T05:24:02;60.03;;;23.37;;
70367;SDS011;57789;53.868;10.728;2022-12-05T05:26:29;72.13;;;25.00;;
70367;SDS011;57789;53.868;10.728;2022-12-05T05:28:56;66.47;;;25.67;;
70367;SDS011;57789;53.868;10.728;2022-12-05T05:31:22;64.27;;;25.00;;
70367;SDS011;57789;53.868;10.728;2022-12-05T05:33:48;81.20;;;27.87;;
70367;SDS011;57789;53.868;10.728;2022-12-05T05:36:16;72.27;;;26.47;;
70367;SDS011;57789;53.868;10.728;2022-12-05T05:38:43;65.93;;;25.53;;
70367;SDS011;57789;53.868;10.728;2022-12-05T05:41:14;71.10;;;26.23;;
70367;SDS011;57789;53.868;10.728;2022-12-05T05:43:44;75.90;;;25.80;;
70367;SDS011;57789;53.868;10.728;2022-12-05T05:46:10;64.20;;;23.13;;
70367;SDS011;57789;53.868;10.728;2022-12-05T05:48:36;66.70;;;24.63;;
70367;SDS011;57789;53.868;10.728;2022-12-05T05:51:03;74.00;;;27.33;;
70367;SDS011;57789;53.868;10.728;2022-12-05T05:53:30;60.93;;;25.40;;
70367;SDS011;57789;53.868;10.728;2022-12-05T05:55:56;67.10;;;23.00;;
70367;SDS011;57789;53.868;10.728;2022-12-05T05:58:21;65.60;;;24.90;;
70367;SDS011;57789;53.868;10.728;2022-12-05T06:00:47;53.23;;;24.40;;
70367;SDS011;57789;53.868;10.728;2022-12-05T06:03:13;56.27;;;24.20;;
70367;SDS011;57789;53.868;10.728;2022-12-05T06:05:38;71.70;;;25.83;;
70367;SDS011;57789;53.868;10.728;2022-12-05T06:08:04;66.80;;;25.07;;
70367;SDS011;57789;53.868;10.728;2022-12-05T06:10:30;71.80;;;22.77;;
70367;SDS011;57789;53.868;10.728;2022-12-05T06:12:56;55.13;;;23.20;;
70367;SDS011;57789;53.868;10.728;2022-12-05T06:15:22;72.30;;;26.03;;
70367;SDS011;57789;53.868;10.728;2022-12-05T06:17:48;61.93;;;23.83;;
70367;SDS011;57789;53.868;10.728;2022-12-05T06:20:14;62.10;;;22.93;;
70367;SDS011;57789;53.868;10.728;2022-12-05T06:22:39;60.97;;;22.77;;
70367;SDS011;57789;53.868;10.728;2022-12-05T06:25:06;53.63;;;21.00;;
70367;SDS011;57789;53.868;10.728;2022-12-05T06:27:32;52.60;;;20.67;;
70367;SDS011;57789;53.868;10.728;2022-12-05T06:29:58;55.40;;;21.40;;
70367;SDS011;57789;53.868;10.728;2022-12-05T06:32:26;56.77;;;23.60;;
70367;SDS011;57789;53.868;10.728;2022-12-05T06:34:52;61.30;;;22.50;;
70367;SDS011;57789;53.868;10.728;2022-12-05T06:37:17;57.90;;;21.83;;
70367;SDS011;57789;53.868;10.728;2022-12-05T06:39:43;50.23;;;21.10;;
70367;SDS011;57789;53.868;10.728;2022-12-05T06:42:09;55.17;;;22.90;;
70367;SDS011;57789;53.868;10.728;2022-12-05T06:44:34;53.23;;;24.07;;
70367;SDS011;57789;53.868;10.728;2022-12-05T06:47:00;51.13;;;21.07;;
70367;SDS011;57789;53.868;10.728;2022-12-05T06:49:26;64.73;;;24.73;;
70367;SDS011;57789;53.868;10.728;2022-12-05T06:51:56;49.73;;;21.20;;
70367;SDS011;57789;53.868;10.728;2022-12-05T06:54:23;64.80;;;23.93;;
70367;SDS011;57789;53.868;10.728;2022-12-05T06:56:49;64.47;;;25.60;;
70367;SDS011;57789;53.868;10.728;2022-12-05T06:59:15;48.13;;;21.87;;
70367;SDS011;57789;53.868;10.728;2022-12-05T07:01:40;62.37;;;23.33;;
70367;SDS011;57789;53.868;10.728;2022-12-05T07:06:34;50.33;;;20.63;;
70367;SDS011;57789;53.868;10.728;2022-12-05T07:09:00;60.57;;;22.97;;
70367;SDS011;57789;53.868;10.728;2022-12-05T07:11:27;52.23;;;22.03;;
70367;SDS011;57789;53.868;10.728;2022-12-05T07:13:52;52.23;;;20.50;;
70367;SDS011;57789;53.868;10.728;2022-12-05T07:16:18;58.20;;;22.20;;
70367;SDS011;57789;53.868;10.728;2022-12-05T07:18:44;50.97;;;21.20;;
70367;SDS011;57789;53.868;10.728;2022-12-05T07:21:10;55.80;;;21.83;;
70367;SDS011;57789;53.868;10.728;2022-12-05T07:23:38;47.30;;;20.40;;
70367;SDS011;57789;53.868;10.728;2022-12-05T07:26:04;48.77;;;19.60;;
70367;SDS011;57789;53.868;10.728;2022-12-05T07:28:31;47.63;;;20.30;;
70367;SDS011;57789;53.868;10.728;2022-12-05T07:30:58;50.60;;;21.00;;
70367;SDS011;57789;53.868;10.728;2022-12-05T07:33:31;52.50;;;22.57;;
70367;SDS011;57789;53.868;10.728;2022-12-05T07:36:07;56.00;;;21.17;;
70367;SDS011;57789;53.868;10.728;2022-12-05T07:38:35;56.47;;;23.43;;
70367;SDS011;57789;53.868;10.728;2022-12-05T07:41:05;53.10;;;20.93;;
70367;SDS011;57789;53.868;10.728;2022-12-05T07:43:32;57.00;;;21.10;;
70367;SDS011;57789;53.868;10.728;2022-12-05T07:46:02;55.00;;;22.23;;
70367;SDS011;57789;53.868;10.728;2022-12-05T07:48:28;53.87;;;21.70;;
70367;SDS011;57789;53.868;10.728;2022-12-05T07:50:57;50.90;;;20.27;;
70367;SDS011;57789;53.868;10.728;2022-12-05T07:53:28;53.27;;;21.30;;
70367;SDS011;57789;53.868;10.728;2022-12-05T07:55:54;62.90;;;21.60;;
70367;SDS011;57789;53.868;10.728;2022-12-05T07:58:24;46.13;;;20.00;;
70367;SDS011;57789;53.868;10.728;2022-12-05T08:00:49;56.70;;;21.87;;
70367;SDS011;57789;53.868;10.728;2022-12-05T08:03:15;56.40;;;22.47;;
70367;SDS011;57789;53.868;10.728;2022-12-05T08:05:41;63.47;;;21.07;;
70367;SDS011;57789;53.868;10.728;2022-12-05T08:08:07;46.97;;;20.30;;
70367;SDS011;57789;53.868;10.728;2022-12-05T08:10:33;51.20;;;21.10;;
70367;SDS011;57789;53.868;10.728;2022-12-05T08:12:59;62.73;;;23.70;;
70367;SDS011;57789;53.868;10.728;2022-12-05T08:15:25;64.13;;;23.87;;
70367;SDS011;57789;53.868;10.728;2022-12-05T08:17:50;59.17;;;21.13;;
70367;SDS011;57789;53.868;10.728;2022-12-05T08:20:16;59.40;;;22.20;;
70367;SDS011;57789;53.868;10.728;2022-12-05T08:22:42;65.93;;;23.20;;
70367;SDS011;57789;53.868;10.728;2022-12-05T08:25:08;69.40;;;24.03;;
70367;SDS011;57789;53.868;10.728;2022-12-05T08:27:34;76.03;;;25.23;;
70367;SDS011;57789;53.868;10.728;2022-12-05T08:30:00;71.70;;;25.10;;
70367;SDS011;57789;53.868;10.728;2022-12-05T08:32:25;63.90;;;23.87;;
70367;SDS011;57789;53.868;10.728;2022-12-05T08:34:51;68.50;;;23.83;;
70367;SDS011;57789;53.868;10.728;2022-12-05T08:37:17;73.47;;;25.73;;
70367;SDS011;57789;53.868;10.728;2022-12-05T08:39:43;67.97;;;24.60;;
70367;SDS011;57789;53.868;10.728;2022-12-05T08:42:08;71.33;;;24.90;;
70367;SDS011;57789;53.868;10.728;2022-12-05T08:44:34;67.67;;;26.73;;
70367;SDS011;57789;53.868;10.728;2022-12-05T08:47:00;71.10;;;25.77;;
70367;SDS011;57789;53.868;10.728;2022-12-05T08:49:25;69.70;;;25.27;;
70367;SDS011;57789;53.868;10.728;2022-12-05T08:51:52;83.77;;;27.60;;
70367;SDS011;57789;53.868;10.728;2022-12-05T08:54:18;66.90;;;25.43;;
70367;SDS011;57789;53.868;10.728;2022-12-05T08:56:43;68.90;;;27.07;;
70367;SDS011;57789;53.868;10.728;2022-12-05T08:59:09;75.63;;;25.90;;
70367;SDS011;57789;53.868;10.728;2022-12-05T09:01:35;83.33;;;25.17;;
70367;SDS011;57789;53.868;10.728;2022-12-05T09:04:02;70.33;;;24.37;;
70367;SDS011;57789;53.868;10.728;2022-12-05T09:06:29;72.10;;;24.10;;
70367;SDS011;57789;53.868;10.728;2022-12-05T09:08:56;70.47;;;25.73;;
70367;SDS011;57789;53.868;10.728;2022-12-05T09:11:25;71.50;;;25.83;;
70367;SDS011;57789;53.868;10.728;2022-12-05T09:13:53;71.17;;;24.70;;
70367;SDS011;57789;53.868;10.728;2022-12-05T09:16:20;69.50;;;23.60;;
70367;SDS011;57789;53.868;10.728;2022-12-05T09:18:53;67.60;;;25.07;;
70367;SDS011;57789;53.868;10.728;2022-12-05T09:21:20;59.43;;;22.70;;
70367;SDS011;57789;53.868;10.728;2022-12-05T09:23:48;60.73;;;23.47;;
70367;SDS011;57789;53.868;10.728;2022-12-05T09:26:15;50.30;;;21.33;;
70367;SDS011;57789;53.868;10.728;2022-12-05T09:28:42;57.47;;;21.90;;
70367;SDS011;57789;53.868;10.728;2022-12-05T09:31:12;53.00;;;20.53;;
70367;SDS011;57789;53.868;10.728;2022-12-05T09:33:39;52.17;;;21.70;;
70367;SDS011;57789;53.868;10.728;2022-12-05T09:36:06;53.00;;;20.80;;
70367;SDS011;57789;53.868;10.728;2022-12-05T09:38:36;52.70;;;20.20;;
70367;SDS011;57789;53.868;10.728;2022-12-05T09:43:36;48.17;;;19.23;;
70367;SDS011;57789;53.868;10.728;2022-12-05T09:49:27;46.37;;;19.17;;
70367;SDS011;57789;53.868;10.728;2022-12-05T09:51:53;46.37;;;18.13;;
70367;SDS011;57789;53.868;10.728;2022-12-05T09:54:20;47.43;;;20.57;;
70367;SDS011;57789;53.868;10.728;2022-12-05T09:56:48;39.93;;;17.40;;
70367;SDS011;57789;53.868;10.728;2022-12-05T09:59:16;41.50;;;17.90;;
70367;SDS011;57789;53.868;10.728;2022-12-05T10:20:58;39.20;;;18.23;;
70367;SDS011;57789;53.868;10.728;2022-12-05T10:26:10;34.53;;;16.13;;
70367;SDS011;57789;53.868;10.728;2022-12-05T10:31:10;35.83;;;17.87;;
70367;SDS011;57789;53.868;10.728;2022-12-05T10:33:42;31.33;;;16.90;;
70367;SDS011;57789;53.868;10.728;2022-12-05T10:36:15;34.57;;;16.57;;
70367;SDS011;57789;53.868;10.728;2022-12-05T10:38:42;35.47;;;17.77;;
70367;SDS011;57789;53.868;10.728;2022-12-05T10:41:11;36.87;;;17.27;;
70367;SDS011;57789;53.868;10.728;2022-12-05T10:43:39;39.23;;;17.90;;
70367;SDS011;57789;53.868;10.728;2022-12-05T10:46:06;39.97;;;18.00;;
70367;SDS011;57789;53.868;10.728;2022-12-05T10:48:34;39.00;;;18.73;;
70367;SDS011;57789;53.868;10.728;2022-12-05T10:51:02;31.77;;;15.67;;
70367;SDS011;57789;53.868;10.728;2022-12-05T10:59:03;39.83;;;16.10;;
70367;SDS011;57789;53.868;10.728;2022-12-05T11:01:30;42.60;;;19.33;;
70367;SDS011;57789;53.868;10.728;2022-12-05T11:03:57;38.57;;;18.07;;
70367;SDS011;57789;53.868;10.728;2022-12-05T11:06:27;42.90;;;18.23;;
70367;SDS011;57789;53.868;10.728;2022-12-05T11:08:58;37.23;;;18.00;;
70367;SDS011;57789;53.868;10.728;2022-12-05T11:11:57;40.10;;;16.13;;
70367;SDS011;57789;53.868;10.728;2022-12-05T11:14:30;45.50;;;19.70;;
70367;SDS011;57789;53.868;10.728;2022-12-05T11:16:59;33.33;;;15.43;;
70367;SDS011;57789;53.868;10.728;2022-12-05T11:19:44;34.13;;;15.67;;
70367;SDS011;57789;53.868;10.728;2022-12-05T11:22:14;43.27;;;16.83;;
70367;SDS011;57789;53.868;10.728;2022-12-05T11:24:41;38.40;;;19.43;;
70367;SDS011;57789;53.868;10.728;2022-12-05T11:29:42;37.93;;;17.10;;
70367;SDS011;57789;53.868;10.728;2022-12-05T11:32:20;38.87;;;18.47;;
70367;SDS011;57789;53.868;10.728;2022-12-05T11:37:56;38.90;;;17.07;;
70367;SDS011;57789;53.868;10.728;2022-12-05T11:51:22;35.47;;;16.27;;
70367;SDS011;57789;53.868;10.728;2022-12-05T11:56:56;41.10;;;17.20;;
70367;SDS011;57789;53.868;10.728;2022-12-05T11:59:52;34.80;;;16.90;;
70367;SDS011;57789;53.868;10.728;2022-12-05T12:20:57;70.40;;;32.40;;
70367;SDS011;57789;53.868;10.728;2022-12-05T12:23:55;61.13;;;25.83;;
70367;SDS011;57789;53.868;10.728;2022-12-05T12:29:19;49.50;;;22.70;;
70367;SDS011;57789;53.868;10.728;2022-12-05T12:37:02;34.83;;;18.30;;
70367;SDS011;57789;53.868;10.728;2022-12-05T12:40:01;43.50;;;19.87;;
70367;SDS011;57789;53.868;10.728;2022-12-05T12:43:30;45.50;;;19.40;;
70367;SDS011;57789;53.868;10.728;2022-12-05T12:48:50;49.90;;;22.37;;
70367;SDS011;57789;53.868;10.728;2022-12-05T12:51:35;46.73;;;22.80;;
70367;SDS011;57789;53.868;10.728;2022-12-05T13:02:16;37.43;;;18.83;;
70367;SDS011;57789;53.868;10.728;2022-12-05T13:04:48;44.70;;;22.90;;
70367;SDS011;57789;53.868;10.728;2022-12-05T13:07:19;103.50;;;47.13;;
70367;SDS011;57789;53.868;10.728;2022-12-05T13:09:52;79.93;;;37.90;;
70367;SDS011;57789;53.868;10.728;2022-12-05T13:12:27;47.87;;;22.73;;
70367;SDS011;57789;53.868;10.728;2022-12-05T13:15:18;43.27;;;19.90;;
70367;SDS011;57789;53.868;10.728;2022-12-05T13:17:47;41.03;;;18.53;;
70367;SDS011;57789;53.868;10.728;2022-12-05T13:20:17;49.70;;;23.10;;
70367;SDS011;57789;53.868;10.728;2022-12-05T13:22:45;45.73;;;21.27;;
70367;SDS011;57789;53.868;10.728;2022-12-05T13:25:16;47.20;;;20.40;;
70367;SDS011;57789;53.868;10.728;2022-12-05T13:30:55;37.40;;;17.40;;
70367;SDS011;57789;53.868;10.728;2022-12-05T13:33:26;45.17;;;18.87;;
70367;SDS011;57789;53.868;10.728;2022-12-05T13:35:56;43.30;;;18.87;;
70367;SDS011;57789;53.868;10.728;2022-12-05T13:42:20;34.30;;;16.57;;
70367;SDS011;57789;53.868;10.728;2022-12-05T13:44:52;30.40;;;15.60;;
70367;SDS011;57789;53.868;10.728;2022-12-05T13:47:30;36.03;;;17.20;;
70367;SDS011;57789;53.868;10.728;2022-12-05T13:52:38;36.17;;;17.57;;
70367;SDS011;57789;53.868;10.728;2022-12-05T13:57:58;32.40;;;16.63;;
70367;SDS011;57789;53.868;10.728;2022-12-05T14:00:30;39.83;;;18.00;;
70367;SDS011;57789;53.868;10.728;2022-12-05T14:03:04;36.30;;;17.17;;
70367;SDS011;57789;53.868;10.728;2022-12-05T14:05:45;37.60;;;17.50;;
70367;SDS011;57789;53.868;10.728;2022-12-05T14:24:06;56.87;;;27.17;;
70367;SDS011;57789;53.868;10.728;2022-12-05T14:26:56;51.30;;;26.77;;
70367;SDS011;57789;53.868;10.728;2022-12-05T14:32:31;57.37;;;26.60;;
70367;SDS011;57789;53.868;10.728;2022-12-05T14:37:36;44.83;;;22.17;;
70367;SDS011;57789;53.868;10.728;2022-12-05T14:43:05;33.40;;;17.03;;
70367;SDS011;57789;53.868;10.728;2022-12-05T14:45:35;36.40;;;15.77;;
70367;SDS011;57789;53.868;10.728;2022-12-05T14:50:40;38.57;;;17.87;;
70367;SDS011;57789;53.868;10.728;2022-12-05T14:55:47;33.30;;;16.60;;
70367;SDS011;57789;53.868;10.728;2022-12-05T15:01:12;40.80;;;18.50;;
70367;SDS011;57789;53.868;10.728;2022-12-05T15:03:46;64.20;;;29.97;;
70367;SDS011;57789;53.868;10.728;2022-12-05T15:06:34;66.50;;;30.40;;
70367;SDS011;57789;53.868;10.728;2022-12-05T15:09:07;74.07;;;34.13;;
70367;SDS011;57789;53.868;10.728;2022-12-05T15:11:45;72.77;;;32.83;;
70367;SDS011;57789;53.868;10.728;2022-12-05T15:14:29;60.33;;;28.00;;
70367;SDS011;57789;53.868;10.728;2022-12-05T15:17:03;39.63;;;19.53;;
70367;SDS011;57789;53.868;10.728;2022-12-05T15:19:49;51.63;;;22.50;;
70367;SDS011;57789;53.868;10.728;2022-12-05T15:22:34;34.63;;;16.83;;
70367;SDS011;57789;53.868;10.728;2022-12-05T15:25:24;40.60;;;19.57;;
70367;SDS011;57789;53.868;10.728;2022-12-05T15:27:58;45.30;;;19.87;;
70367;SDS011;57789;53.868;10.728;2022-12-05T15:30:42;33.57;;;16.33;;
70367;SDS011;57789;53.868;10.728;2022-12-05T15:33:18;39.03;;;15.20;;
70367;SDS011;57789;53.868;10.728;2022-12-05T15:35:44;39.87;;;17.87;;
70367;SDS011;57789;53.868;10.728;2022-12-05T15:38:24;35.70;;;16.23;;
70367;SDS011;57789;53.868;10.728;2022-12-05T15:40:53;35.23;;;15.60;;
70367;SDS011;57789;53.868;10.728;2022-12-05T15:43:27;32.77;;;15.37;;
70367;SDS011;57789;53.868;10.728;2022-12-05T15:48:52;35.10;;;16.20;;
70367;SDS011;57789;53.868;10.728;2022-12-05T15:51:20;34.70;;;16.60;;
70367;SDS011;57789;53.868;10.728;2022-12-05T15:56:53;30.30;;;16.50;;
70367;SDS011;57789;53.868;10.728;2022-12-05T15:59:32;32.43;;;14.60;;
70367;SDS011;57789;53.868;10.728;2022-12-05T16:02:19;58.07;;;28.50;;
70367;SDS011;57789;53.868;10.728;2022-12-05T16:05:32;41.10;;;18.40;;
70367;SDS011;57789;53.868;10.728;2022-12-05T16:08:05;62.70;;;28.80;;
70367;SDS011;57789;53.868;10.728;2022-12-05T16:10:32;77.77;;;36.17;;
70367;SDS011;57789;53.868;10.728;2022-12-05T16:13:11;62.30;;;30.30;;
70367;SDS011;57789;53.868;10.728;2022-12-05T16:15:41;52.97;;;25.37;;
70367;SDS011;57789;53.868;10.728;2022-12-05T16:18:18;52.60;;;23.77;;
70367;SDS011;57789;53.868;10.728;2022-12-05T16:20:49;47.17;;;19.37;;
70367;SDS011;57789;53.868;10.728;2022-12-05T16:23:48;34.67;;;17.17;;
70367;SDS011;57789;53.868;10.728;2022-12-05T16:26:09;38.33;;;18.53;;
70367;SDS011;57789;53.868;10.728;2022-12-05T16:28:37;32.00;;;16.87;;
70367;SDS011;57789;53.868;10.728;2022-12-05T16:31:03;34.43;;;17.00;;
70367;SDS011;57789;53.868;10.728;2022-12-05T16:33:30;30.13;;;15.53;;
70367;SDS011;57789;53.868;10.728;2022-12-05T16:36:10;33.67;;;15.07;;
70367;SDS011;57789;53.868;10.728;2022-12-05T16:38:36;43.53;;;18.60;;
70367;SDS011;57789;53.868;10.728;2022-12-05T16:41:07;66.97;;;30.53;;
70367;SDS011;57789;53.868;10.728;2022-12-05T16:48:40;28.17;;;13.83;;
70367;SDS011;57789;53.868;10.728;2022-12-05T16:53:53;59.33;;;26.27;;
70367;SDS011;57789;53.868;10.728;2022-12-05T16:58:48;59.40;;;27.80;;
70367;SDS011;57789;53.868;10.728;2022-12-05T17:01:15;32.33;;;15.33;;
70367;SDS011;57789;53.868;10.728;2022-12-05T17:03:46;35.53;;;15.20;;
70367;SDS011;57789;53.868;10.728;2022-12-05T17:06:12;38.73;;;17.10;;
70367;SDS011;57789;53.868;10.728;2022-12-05T17:08:51;47.37;;;21.50;;
70367;SDS011;57789;53.868;10.728;2022-12-05T17:11:25;40.37;;;18.93;;
70367;SDS011;57789;53.868;10.728;2022-12-05T17:13:53;36.80;;;17.87;;
70367;SDS011;57789;53.868;10.728;2022-12-05T17:16:20;35.90;;;16.20;;
70367;SDS011;57789;53.868;10.728;2022-12-05T17:18:47;30.40;;;15.40;;
70367;SDS011;57789;53.868;10.728;2022-12-05T17:21:14;33.63;;;15.47;;
70367;SDS011;57789;53.868;10.728;2022-12-05T17:23:42;27.50;;;14.50;;
70367;SDS011;57789;53.868;10.728;2022-12-05T17:26:11;37.60;;;18.17;;
70367;SDS011;57789;53.868;10.728;2022-12-05T17:28:38;30.37;;;14.50;;
70367;SDS011;57789;53.868;10.728;2022-12-05T17:31:04;34.37;;;14.80;;
70367;SDS011;57789;53.868;10.728;2022-12-05T17:33:30;30.50;;;14.70;;
70367;SDS011;57789;53.868;10.728;2022-12-05T17:35:56;23.20;;;13.37;;
70367;SDS011;57789;53.868;10.728;2022-12-05T17:38:22;29.80;;;14.10;;
70367;SDS011;57789;53.868;10.728;2022-12-05T17:40:48;32.50;;;13.73;;
70367;SDS011;57789;53.868;10.728;2022-12-05T17:43:14;29.37;;;14.40;;
70367;SDS011;57789;53.868;10.728;2022-12-05T17:45:40;35.47;;;14.73;;
70367;SDS011;57789;53.868;10.728;2022-12-05T17:48:13;35.17;;;15.63;;
70367;SDS011;57789;53.868;10.728;2022-12-05T17:50:39;27.77;;;13.33;;
70367;SDS011;57789;53.868;10.728;2022-12-05T17:53:11;34.97;;;16.80;;